Time;durP1;ratioP1;P1;durP2;ratioP2;P2;SDS_P1;SDS_P2;PMS_P1;PMS_P2;Temp;Humidity;BMP_temperature;BMP_pressure;BME280_temperature;BME280_humidity;BME280_pressure;Samples;Min_cycle;Max_cycle;Signal;HPM_P1;HPM_P2
2022/09/18 00:02:23;;;;;;;6.10;2.13;;;12.20;99.90;;;;;;5051023;28;20668;-51
2022/09/18 00:04:49;;;;;;;6.10;2.10;;;12.20;99.90;;;;;;5050820;28;20202;-53
2022/09/18 00:07:14;;;;;;;3.73;2.20;;;12.20;99.90;;;;;;5051750;28;20416;-49
2022/09/18 00:09:40;;;;;;;3.97;2.53;;;12.30;99.90;;;;;;5051674;28;20828;-49
2022/09/18 00:12:06;;;;;;;3.57;2.30;;;12.20;99.90;;;;;;5051600;28;20212;-49
2022/09/18 00:14:31;;;;;;;5.93;2.60;;;12.30;99.90;;;;;;5050778;28;20247;-48
2022/09/18 00:16:57;;;;;;;6.23;2.50;;;12.30;99.90;;;;;;5051212;28;20231;-53
2022/09/18 00:19:23;;;;;;;4.97;2.30;;;12.30;99.90;;;;;;5054972;28;20272;-52
2022/09/18 00:21:50;;;;;;;4.87;2.63;;;12.30;99.90;;;;;;5058902;28;20722;-50
2022/09/18 00:24:16;;;;;;;7.00;2.30;;;12.30;99.90;;;;;;5050522;28;20435;-50
2022/09/18 00:26:43;;;;;;;3.43;3.13;;;12.30;99.90;;;;;;5051140;28;20452;-47
2022/09/18 00:29:10;;;;;;;6.40;3.90;;;12.20;99.90;;;;;;5050703;28;20454;-49
2022/09/18 00:31:37;;;;;;;6.20;3.27;;;12.10;99.90;;;;;;5044088;28;20420;-46
2022/09/18 00:34:06;;;;;;;7.10;3.67;;;12.20;99.90;;;;;;5050340;28;20416;-52
2022/09/18 00:36:32;;;;;;;5.60;3.23;;;12.20;99.90;;;;;;5051025;28;20416;-50
2022/09/18 00:38:58;;;;;;;6.20;3.77;;;12.20;99.90;;;;;;5051207;28;20546;-48
2022/09/18 00:41:27;;;;;;;4.93;3.33;;;12.10;99.90;;;;;;5050898;28;20809;-46
2022/09/18 00:44:00;;;;;;;6.50;3.90;;;12.10;99.90;;;;;;5050383;28;20420;-49
2022/09/18 00:46:30;;;;;;;8.23;4.07;;;12.10;99.90;;;;;;5050648;28;20613;-49
2022/09/18 00:49:03;;;;;;;4.83;3.50;;;12.10;99.90;;;;;;5051153;28;20851;-48
2022/09/18 00:51:31;;;;;;;5.70;3.33;;;12.10;99.90;;;;;;5050752;28;20569;-48
2022/09/18 00:54:09;;;;;;;9.00;5.10;;;12.10;99.90;;;;;;5039411;28;20459;-47
2022/09/18 00:56:36;;;;;;;4.93;3.53;;;12.10;99.90;;;;;;5049995;28;20450;-48
2022/09/18 00:59:02;;;;;;;5.33;3.70;;;12.10;99.90;;;;;;5050759;28;20495;-48
2022/09/18 01:01:28;;;;;;;6.77;3.50;;;12.10;99.90;;;;;;5050513;28;20455;-51
2022/09/18 01:03:54;;;;;;;5.23;4.30;;;12.10;99.90;;;;;;5049453;28;20444;-49
2022/09/18 01:06:47;;;;;;;5.20;3.73;;;12.20;99.90;;;;;;5045141;28;20858;-49
2022/09/18 01:09:24;;;;;;;7.13;4.00;;;12.10;99.90;;;;;;5061749;28;20609;-52
2022/09/18 01:12:17;;;;;;;3.80;3.10;;;12.00;99.90;;;;;;5070478;28;20415;-46
2022/09/18 01:15:11;;;;;;;4.43;3.20;;;12.10;99.90;;;;;;5069800;28;20492;-48
2022/09/18 01:18:09;;;;;;;4.90;3.17;;;12.10;99.90;;;;;;5070157;28;20415;-53
2022/09/18 01:21:13;;;;;;;5.90;3.80;;;12.10;99.90;;;;;;5067429;28;20430;-51
2022/09/18 01:24:06;;;;;;;4.73;3.40;;;12.20;99.90;;;;;;5049248;28;20420;-49
2022/09/18 01:26:54;;;;;;;6.17;2.90;;;12.20;99.90;;;;;;5050118;28;20464;-48
2022/09/18 01:29:39;;;;;;;5.00;2.70;;;12.20;99.90;;;;;;5048896;28;20915;-48
2022/09/18 01:32:18;;;;;;;5.50;3.30;;;12.20;99.90;;;;;;5049745;28;20419;-49
2022/09/18 01:34:59;;;;;;;10.07;3.57;;;12.10;99.90;;;;;;5049746;28;20434;-49
2022/09/18 01:37:31;;;;;;;10.67;4.20;;;12.20;99.90;;;;;;5050102;28;21208;-48
2022/09/18 01:40:06;;;;;;;6.57;3.40;;;12.20;99.90;;;;;;5049957;28;20416;-49
2022/09/18 01:42:34;;;;;;;9.20;3.90;;;12.20;99.90;;;;;;5049170;28;20412;-47
2022/09/18 01:45:05;;;;;;;5.07;4.03;;;12.20;99.90;;;;;;5048225;28;20420;-52
2022/09/18 01:47:38;;;;;;;5.53;3.53;;;12.30;99.90;;;;;;5049094;28;20436;-47
2022/09/18 01:50:04;;;;;;;6.10;3.90;;;12.20;99.90;;;;;;5049807;28;20858;-47
2022/09/18 01:52:38;;;;;;;7.70;3.30;;;12.20;99.90;;;;;;5049484;28;20420;-47
2022/09/18 01:55:11;;;;;;;6.17;3.80;;;12.20;99.90;;;;;;5048571;28;20427;-50
2022/09/18 01:57:47;;;;;;;9.90;3.30;;;12.30;99.90;;;;;;5049680;28;20448;-49
2022/09/18 02:00:14;;;;;;;6.40;3.53;;;12.30;99.90;;;;;;5049717;28;20422;-51
2022/09/18 02:02:55;;;;;;;8.43;3.90;;;12.20;99.90;;;;;;5049078;28;20416;-51
2022/09/18 02:05:26;;;;;;;6.10;3.40;;;12.20;99.90;;;;;;5049394;28;20554;-49
2022/09/18 02:08:08;;;;;;;7.70;3.50;;;12.30;99.90;;;;;;5049507;28;20420;-50
2022/09/18 02:10:43;;;;;;;5.20;3.40;;;12.20;99.90;;;;;;5049743;28;20424;-51
2022/09/18 02:13:13;;;;;;;6.93;3.30;;;12.20;99.90;;;;;;5049060;28;20418;-48
2022/09/18 02:15:42;;;;;;;5.80;3.60;;;12.20;99.90;;;;;;5051276;28;20419;-50
2022/09/18 02:18:16;;;;;;;5.63;3.10;;;12.30;99.90;;;;;;5053609;28;20416;-50
2022/09/18 02:20:43;;;;;;;6.17;3.20;;;12.20;99.90;;;;;;5065272;28;20461;-49
2022/09/18 02:23:09;;;;;;;5.00;2.90;;;12.20;99.90;;;;;;5052985;28;20490;-52
2022/09/18 02:25:59;;;;;;;5.33;3.40;;;12.20;99.90;;;;;;5053479;28;20475;-49
2022/09/18 02:28:28;;;;;;;5.80;3.53;;;12.20;99.90;;;;;;5053579;28;20909;-52
2022/09/18 02:30:53;;;;;;;6.27;3.50;;;12.20;99.90;;;;;;5053557;28;20412;-52
2022/09/18 02:33:30;;;;;;;7.70;3.30;;;12.20;99.90;;;;;;5052728;28;20427;-47
2022/09/18 02:36:39;;;;;;;6.90;3.13;;;12.30;99.90;;;;;;5053454;28;20355;-50
2022/09/18 02:39:17;;;;;;;7.03;4.20;;;12.20;99.90;;;;;;5025746;28;20424;-49
2022/09/18 02:42:04;;;;;;;6.13;4.87;;;12.20;99.90;;;;;;5053178;28;20416;-49
2022/09/18 02:44:54;;;;;;;7.00;5.03;;;12.20;99.90;;;;;;5051683;28;20408;-52
2022/09/18 02:47:50;;;;;;;7.53;4.50;;;12.20;99.90;;;;;;5053284;28;20408;-46
2022/09/18 02:50:19;;;;;;;11.33;5.07;;;12.20;99.90;;;;;;5053074;28;20420;-49
2022/09/18 02:52:53;;;;;;;8.47;5.23;;;12.20;99.90;;;;;;5042171;28;20410;-49
2022/09/18 02:55:25;;;;;;;9.23;5.33;;;12.20;99.90;;;;;;5050384;28;20409;-51
2022/09/18 02:58:23;;;;;;;9.67;5.50;;;12.10;99.90;;;;;;5052946;28;21124;-49
2022/09/18 03:00:50;;;;;;;7.13;5.47;;;12.20;99.90;;;;;;5052871;28;20469;-49
2022/09/18 03:03:19;;;;;;;7.20;4.97;;;12.20;99.90;;;;;;5052135;28;20416;-51
2022/09/18 03:05:45;;;;;;;9.23;4.90;;;12.30;99.90;;;;;;5052250;28;20904;-50
2022/09/18 03:08:11;;;;;;;7.30;5.00;;;12.30;99.90;;;;;;5051389;28;20429;-47
2022/09/18 03:10:37;;;;;;;9.83;6.73;;;12.30;99.90;;;;;;5052774;28;20196;-47
2022/09/18 03:13:02;;;;;;;8.70;6.60;;;12.30;99.90;;;;;;5052055;28;20835;-49
2022/09/18 03:15:28;;;;;;;8.97;7.43;;;12.20;99.90;;;;;;5052612;28;20424;-47
2022/09/18 03:17:54;;;;;;;7.80;6.40;;;12.10;99.90;;;;;;5052686;28;20201;-52
2022/09/18 03:20:19;;;;;;;7.00;6.30;;;12.20;99.90;;;;;;5063229;28;20536;-48
2022/09/18 03:22:45;;;;;;;9.20;6.60;;;12.10;99.90;;;;;;5051852;28;20195;-50
2022/09/18 03:25:13;;;;;;;6.97;5.50;;;12.10;99.90;;;;;;5052265;28;20201;-50
2022/09/18 03:27:38;;;;;;;7.93;5.37;;;12.10;99.90;;;;;;5052060;28;20193;-53
2022/09/18 03:30:05;;;;;;;8.90;6.27;;;12.10;99.90;;;;;;5052228;28;20424;-49
2022/09/18 03:32:31;;;;;;;8.37;6.10;;;12.10;99.90;;;;;;5052237;28;20232;-48
2022/09/18 03:34:57;;;;;;;6.67;5.83;;;12.20;99.90;;;;;;5051490;28;20920;-48
2022/09/18 03:37:23;;;;;;;12.20;6.40;;;12.20;99.90;;;;;;5052348;28;20190;-49
2022/09/18 03:39:48;;;;;;;12.07;6.40;;;12.20;99.90;;;;;;5052149;28;20239;-49
2022/09/18 03:42:14;;;;;;;9.03;6.90;;;12.20;99.90;;;;;;5052141;28;20423;-51
2022/09/18 03:44:40;;;;;;;9.03;5.80;;;12.20;99.90;;;;;;5051584;28;20250;-49
2022/09/18 03:47:08;;;;;;;8.80;6.03;;;12.20;99.90;;;;;;5038790;28;20213;-48
2022/09/18 03:49:34;;;;;;;9.40;6.50;;;12.20;99.90;;;;;;5051811;28;20288;-47
2022/09/18 03:51:59;;;;;;;9.60;5.80;;;12.20;99.90;;;;;;5051963;28;20962;-49
2022/09/18 03:54:25;;;;;;;8.57;6.17;;;12.20;99.90;;;;;;5048575;28;20432;-48
2022/09/18 03:56:51;;;;;;;6.53;5.70;;;12.30;99.90;;;;;;5051833;28;20190;-49
2022/09/18 03:59:17;;;;;;;7.00;6.10;;;12.30;99.90;;;;;;5051917;28;20201;-53
2022/09/18 04:01:42;;;;;;;8.80;6.43;;;12.30;99.90;;;;;;5051718;28;20197;-51
2022/09/18 04:04:08;;;;;;;7.27;5.80;;;12.30;99.90;;;;;;5050894;28;20193;-49
2022/09/18 04:06:34;;;;;;;8.23;5.77;;;12.40;99.90;;;;;;5051774;28;20213;-49
2022/09/18 04:08:59;;;;;;;7.57;5.50;;;12.30;99.90;;;;;;5051578;28;20660;-49
2022/09/18 04:11:25;;;;;;;5.90;5.30;;;12.30;99.90;;;;;;5050252;28;20193;-51
2022/09/18 04:13:50;;;;;;;9.60;5.90;;;12.20;99.90;;;;;;5050972;28;20633;-52
2022/09/18 04:16:16;;;;;;;7.10;5.50;;;12.20;99.90;;;;;;5051467;28;20642;-48
2022/09/18 04:18:42;;;;;;;8.27;6.70;;;12.30;99.90;;;;;;5051200;28;20542;-47
2022/09/18 04:21:08;;;;;;;8.10;5.83;;;12.20;99.90;;;;;;5062722;28;20208;-49
2022/09/18 04:23:34;;;;;;;8.77;6.70;;;12.20;99.90;;;;;;5050668;28;20196;-47
2022/09/18 04:26:07;;;;;;;9.63;6.10;;;12.20;99.90;;;;;;5051307;28;20460;-50
2022/09/18 04:28:34;;;;;;;10.50;6.17;;;12.20;99.90;;;;;;5051208;28;20273;-50
2022/09/18 04:30:59;;;;;;;7.20;5.23;;;12.20;99.90;;;;;;5051208;28;20435;-50
2022/09/18 04:33:25;;;;;;;8.37;6.17;;;12.20;99.90;;;;;;5050247;28;20440;-49
2022/09/18 04:35:51;;;;;;;7.53;5.80;;;12.30;99.90;;;;;;5051138;28;20193;-51
2022/09/18 04:38:17;;;;;;;7.13;5.87;;;12.30;99.90;;;;;;5050188;28;20259;-50
2022/09/18 04:40:42;;;;;;;7.63;6.90;;;12.30;99.90;;;;;;5051064;28;20436;-53
2022/09/18 04:43:10;;;;;;;9.37;6.70;;;12.30;99.90;;;;;;5050211;28;20194;-50
2022/09/18 04:45:36;;;;;;;9.63;5.93;;;12.30;99.90;;;;;;5050825;28;20213;-50
2022/09/18 04:48:01;;;;;;;9.10;6.80;;;12.30;99.90;;;;;;5050816;28;20412;-46
2022/09/18 04:50:27;;;;;;;10.40;6.27;;;12.30;99.90;;;;;;5050959;28;20694;-49
2022/09/18 04:52:53;;;;;;;6.77;6.17;;;12.30;99.90;;;;;;5050084;28;20212;-48
2022/09/18 04:55:18;;;;;;;9.40;5.70;;;12.30;99.90;;;;;;5049314;28;20205;-48
2022/09/18 04:57:44;;;;;;;6.17;5.57;;;12.40;99.90;;;;;;5050663;28;20189;-48
2022/09/18 05:00:10;;;;;;;10.93;5.90;;;12.30;99.90;;;;;;5050569;28;20656;-51
2022/09/18 05:02:37;;;;;;;7.33;5.53;;;12.20;99.90;;;;;;5050096;28;20734;-50
2022/09/18 05:05:04;;;;;;;9.43;5.30;;;12.20;99.90;;;;;;5050140;28;20458;-52
2022/09/18 05:07:30;;;;;;;6.97;5.03;;;12.20;99.90;;;;;;5044898;28;20443;-52
2022/09/18 05:09:56;;;;;;;6.53;4.80;;;12.20;99.90;;;;;;5046589;28;20435;-49
2022/09/18 05:12:22;;;;;;;4.87;4.03;;;12.20;99.90;;;;;;5049771;28;20425;-49
2022/09/18 05:14:47;;;;;;;5.87;4.13;;;12.10;99.90;;;;;;5049298;28;20186;-49
2022/09/18 05:17:13;;;;;;;6.80;4.03;;;12.10;99.90;;;;;;5051688;28;20224;-47
2022/09/18 05:19:39;;;;;;;5.07;3.63;;;12.10;99.90;;;;;;5070461;28;20669;-49
2022/09/18 05:22:04;;;;;;;8.47;4.43;;;12.10;99.90;;;;;;5055371;28;20436;-49
2022/09/18 05:24:30;;;;;;;7.87;5.10;;;12.20;99.90;;;;;;5048869;28;20311;-50
2022/09/18 05:26:56;;;;;;;4.87;4.03;;;12.10;99.90;;;;;;5049010;28;20633;-47
2022/09/18 05:29:21;;;;;;;6.63;4.10;;;12.10;99.90;;;;;;5049231;28;20193;-50
2022/09/18 05:31:47;;;;;;;9.00;4.27;;;12.10;99.90;;;;;;5050180;28;20324;-51
2022/09/18 05:34:13;;;;;;;6.07;3.90;;;12.10;99.90;;;;;;5049369;28;20190;-50
2022/09/18 05:36:38;;;;;;;6.27;4.27;;;12.10;99.90;;;;;;5048936;28;20205;-49
2022/09/18 05:39:04;;;;;;;8.63;4.00;;;12.10;99.90;;;;;;5048635;28;20204;-53
2022/09/18 05:41:30;;;;;;;9.17;4.30;;;12.10;99.90;;;;;;5050135;28;20243;-53
2022/09/18 05:43:55;;;;;;;5.60;3.50;;;12.10;99.90;;;;;;5049283;28;20285;-50
2022/09/18 05:46:21;;;;;;;6.10;3.20;;;12.00;99.90;;;;;;5049564;28;20271;-48
2022/09/18 05:48:53;;;;;;;5.07;3.77;;;12.10;99.90;;;;;;5049726;28;20178;-48
2022/09/18 05:51:18;;;;;;;5.30;4.50;;;12.10;99.90;;;;;;5064758;28;20272;-50
2022/09/18 05:53:47;;;;;;;6.27;3.70;;;12.10;99.90;;;;;;5050554;28;20520;-50
2022/09/18 05:56:14;;;;;;;5.60;4.43;;;12.10;99.90;;;;;;5048134;28;20197;-48
2022/09/18 05:58:41;;;;;;;5.73;4.67;;;12.00;99.90;;;;;;5049545;28;20428;-50
2022/09/18 06:01:06;;;;;;;8.00;6.23;;;12.10;99.90;;;;;;5049811;28;20458;-51
2022/09/18 06:03:32;;;;;;;7.87;5.87;;;12.00;99.90;;;;;;5049200;28;20459;-47
2022/09/18 06:05:58;;;;;;;8.07;6.27;;;12.10;99.90;;;;;;5049510;28;20275;-49
2022/09/18 06:08:23;;;;;;;6.40;5.77;;;12.10;99.90;;;;;;5065124;28;20637;-52
2022/09/18 06:10:49;;;;;;;8.63;5.70;;;12.10;99.90;;;;;;5047324;28;20173;-48
2022/09/18 06:13:16;;;;;;;7.53;6.20;;;12.20;99.90;;;;;;5054925;28;20954;-50
2022/09/18 06:15:47;;;;;;;7.50;6.50;;;12.20;99.90;;;;;;5062227;28;20254;-51
2022/09/18 06:18:14;;;;;;;8.80;5.90;;;12.20;99.90;;;;;;5069708;28;20419;-49
2022/09/18 06:20:41;;;;;;;9.93;6.33;;;12.10;99.90;;;;;;5066152;28;20428;-47
2022/09/18 06:23:07;;;;;;;8.57;6.10;;;12.10;99.90;;;;;;5048930;28;20569;-52
2022/09/18 06:25:33;;;;;;;10.13;6.53;;;12.20;99.90;;;;;;5048126;28;20869;-48
2022/09/18 06:27:59;;;;;;;10.17;6.67;;;12.20;99.90;;;;;;5048103;28;20503;-48
2022/09/18 06:30:27;;;;;;;8.13;6.70;;;12.30;99.90;;;;;;5049589;28;20428;-51
2022/09/18 06:32:53;;;;;;;8.23;6.63;;;12.30;99.90;;;;;;5048878;28;20439;-53
2022/09/18 06:35:19;;;;;;;7.80;5.70;;;12.30;99.90;;;;;;5049536;28;20420;-47
2022/09/18 06:37:45;;;;;;;7.90;5.90;;;12.30;99.90;;;;;;5049369;28;20186;-49
2022/09/18 06:40:11;;;;;;;7.70;5.40;;;12.30;99.90;;;;;;5049169;28;20427;-48
2022/09/18 06:42:36;;;;;;;7.13;5.77;;;12.30;99.90;;;;;;5047015;28;20521;-47
2022/09/18 06:45:03;;;;;;;6.17;5.50;;;12.30;99.90;;;;;;5048909;28;20427;-49
2022/09/18 06:47:29;;;;;;;8.80;5.97;;;12.30;99.90;;;;;;5049186;28;20213;-48
2022/09/18 06:49:54;;;;;;;6.73;6.03;;;12.30;99.90;;;;;;5045679;28;20460;-52
2022/09/18 06:52:20;;;;;;;6.50;5.90;;;12.40;99.90;;;;;;5047475;28;20225;-48
2022/09/18 06:54:46;;;;;;;6.73;5.40;;;12.40;99.90;;;;;;5049951;28;20193;-50
2022/09/18 06:57:11;;;;;;;9.13;7.50;;;12.40;99.90;;;;;;5050652;28;20649;-51
2022/09/18 06:59:37;;;;;;;9.70;6.10;;;12.30;99.90;;;;;;5048813;28;20197;-50
2022/09/18 07:02:04;;;;;;;9.40;5.97;;;12.30;99.90;;;;;;5050344;28;20215;-52
2022/09/18 07:04:29;;;;;;;7.07;5.60;;;12.40;99.90;;;;;;5052147;28;20615;-47
2022/09/18 07:06:55;;;;;;;6.20;5.33;;;12.50;99.90;;;;;;5050038;28;20506;-53
2022/09/18 07:09:20;;;;;;;7.70;5.60;;;12.50;99.90;;;;;;5052416;28;20197;-51
2022/09/18 07:11:46;;;;;;;5.93;5.33;;;12.50;99.90;;;;;;5052539;28;20182;-48
2022/09/18 07:14:12;;;;;;;6.20;5.60;;;12.50;99.90;;;;;;5052063;28;20247;-50
2022/09/18 07:16:37;;;;;;;6.17;5.57;;;12.50;99.90;;;;;;5043316;28;20230;-48
2022/09/18 07:19:03;;;;;;;7.40;5.93;;;12.50;99.90;;;;;;5054983;28;20316;-48
2022/09/18 07:21:29;;;;;;;6.83;6.10;;;12.50;99.90;;;;;;5061306;28;20675;-49
2022/09/18 07:23:55;;;;;;;10.43;6.60;;;12.50;99.90;;;;;;5053195;28;20225;-49
2022/09/18 07:26:21;;;;;;;7.53;6.10;;;12.60;99.90;;;;;;5054767;28;20474;-51
2022/09/18 07:28:47;;;;;;;8.70;5.33;;;12.60;99.90;;;;;;5051666;28;20190;-50
2022/09/18 07:31:12;;;;;;;8.07;6.20;;;12.60;99.90;;;;;;5052443;28;20194;-49
2022/09/18 07:33:39;;;;;;;6.20;5.13;;;12.60;99.90;;;;;;5051432;28;20186;-51
2022/09/18 07:36:05;;;;;;;6.10;5.00;;;12.70;99.90;;;;;;5052336;28;20216;-49
2022/09/18 07:38:33;;;;;;;7.13;6.27;;;12.60;99.90;;;;;;5051859;28;20456;-49
2022/09/18 07:41:03;;;;;;;6.40;5.50;;;12.60;99.90;;;;;;5050008;28;20431;-53
2022/09/18 07:43:29;;;;;;;5.57;4.13;;;12.70;99.90;;;;;;5051320;28;20494;-49
2022/09/18 07:45:55;;;;;;;11.70;4.63;;;12.80;99.90;;;;;;5052047;28;20563;-53
2022/09/18 07:48:22;;;;;;;6.37;5.57;;;12.80;99.90;;;;;;5053698;28;20502;-47
2022/09/18 07:50:47;;;;;;;5.17;4.60;;;12.80;99.90;;;;;;5051758;28;20184;-48
2022/09/18 07:53:13;;;;;;;4.13;3.60;;;12.80;99.90;;;;;;5049520;28;20424;-50
2022/09/18 07:55:41;;;;;;;5.53;3.90;;;12.80;99.90;;;;;;5060919;28;20199;-50
2022/09/18 07:58:08;;;;;;;5.37;4.30;;;12.80;99.90;;;;;;5072172;28;20189;-50
2022/09/18 08:00:35;;;;;;;9.80;5.03;;;12.70;99.90;;;;;;5055297;28;20505;-53
2022/09/18 08:03:05;;;;;;;4.03;2.90;;;12.70;99.90;;;;;;5051014;28;20429;-51
2022/09/18 08:05:31;;;;;;;5.27;3.00;;;12.80;99.90;;;;;;5051549;28;20900;-50
2022/09/18 08:08:04;;;;;;;3.60;2.70;;;12.80;99.90;;;;;;5051343;28;20798;-49
2022/09/18 08:10:31;;;;;;;3.83;3.53;;;12.70;99.90;;;;;;5051606;28;20448;-50
2022/09/18 08:12:56;;;;;;;3.83;2.13;;;12.70;99.90;;;;;;5042041;28;20468;-48
2022/09/18 08:15:22;;;;;;;2.80;1.63;;;12.80;99.90;;;;;;5051475;28;20440;-49
2022/09/18 08:17:48;;;;;;;2.53;2.07;;;12.70;99.90;;;;;;5062229;28;20722;-50
2022/09/18 08:20:13;;;;;;;3.10;1.80;;;12.70;99.90;;;;;;5061785;28;20256;-49
2022/09/18 08:22:40;;;;;;;4.90;1.80;;;12.70;99.90;;;;;;5050720;28;20217;-50
2022/09/18 08:25:07;;;;;;;2.23;1.40;;;12.70;99.90;;;;;;5050349;28;21041;-51
2022/09/18 08:27:37;;;;;;;2.47;1.63;;;12.60;99.90;;;;;;5069126;28;20440;-49
2022/09/18 08:30:04;;;;;;;3.53;1.43;;;12.60;99.90;;;;;;5061615;28;20498;-51
2022/09/18 08:32:31;;;;;;;4.63;1.50;;;12.60;99.90;;;;;;5050361;28;20878;-50
2022/09/18 08:34:58;;;;;;;1.97;1.50;;;12.60;99.90;;;;;;5062175;28;20475;-49
2022/09/18 08:37:25;;;;;;;2.43;1.30;;;12.60;99.90;;;;;;5060923;28;20454;-51
2022/09/18 08:39:51;;;;;;;2.80;1.60;;;12.60;99.90;;;;;;5055693;28;20487;-53
2022/09/18 08:42:28;;;;;;;3.10;1.10;;;12.60;99.90;;;;;;5056883;28;20471;-51
2022/09/18 08:44:59;;;;;;;4.80;2.17;;;12.70;99.90;;;;;;5057395;28;20470;-49
2022/09/18 08:47:32;;;;;;;5.23;2.33;;;12.70;99.90;;;;;;5053985;28;20521;-51
2022/09/18 08:50:09;;;;;;;4.30;1.90;;;12.70;99.90;;;;;;5049951;28;20507;-53
2022/09/18 08:52:40;;;;;;;3.00;2.13;;;12.80;99.90;;;;;;5049802;28;20938;-50
2022/09/18 08:55:11;;;;;;;4.80;3.27;;;12.80;99.90;;;;;;5048930;28;20463;-52
2022/09/18 08:58:00;;;;;;;4.83;3.20;;;12.80;99.90;;;;;;5052602;28;20767;-49
2022/09/18 09:00:31;;;;;;;4.30;3.40;;;12.80;99.90;;;;;;5030538;28;20448;-48
2022/09/18 09:03:34;;;;;;;6.47;4.50;;;12.90;99.90;;;;;;5058469;28;20827;-48
2022/09/18 09:06:22;;;;;;;5.40;4.03;;;12.90;99.90;;;;;;5062020;28;20558;-50
2022/09/18 09:09:03;;;;;;;5.53;4.60;;;13.00;99.90;;;;;;5054262;28;20569;-49
2022/09/18 09:11:37;;;;;;;5.20;4.70;;;13.00;99.90;;;;;;5063546;28;20447;-50
2022/09/18 09:14:18;;;;;;;9.43;4.90;;;13.00;99.90;;;;;;5045933;28;20494;-52
2022/09/18 09:16:54;;;;;;;5.27;4.77;;;13.00;99.90;;;;;;5040572;28;20432;-48
2022/09/18 09:19:48;;;;;;;3.60;3.30;;;13.00;99.90;;;;;;5046222;28;20471;-49
2022/09/18 09:22:35;;;;;;;3.70;3.40;;;12.80;99.90;;;;;;5052021;28;20466;-50
2022/09/18 09:25:19;;;;;;;4.83;4.33;;;12.80;99.90;;;;;;5047321;28;20460;-52
2022/09/18 09:27:51;;;;;;;3.27;3.00;;;12.80;99.90;;;;;;5048693;28;20440;-49
2022/09/18 09:30:19;;;;;;;4.27;2.97;;;12.90;99.90;;;;;;5060642;28;21087;-49
2022/09/18 09:32:51;;;;;;;3.17;2.20;;;12.90;99.90;;;;;;5044628;28;20454;-49
2022/09/18 09:35:33;;;;;;;3.30;2.73;;;12.90;99.90;;;;;;5052654;28;20444;-49
2022/09/18 09:38:04;;;;;;;4.43;2.93;;;12.90;99.90;;;;;;5059817;28;20445;-52
2022/09/18 09:40:41;;;;;;;4.90;2.90;;;12.80;99.90;;;;;;5055667;28;20444;-49
2022/09/18 09:43:16;;;;;;;4.90;3.87;;;12.90;99.90;;;;;;5044841;28;20923;-48
2022/09/18 09:45:46;;;;;;;6.13;3.60;;;12.80;99.90;;;;;;5048372;28;20470;-50
2022/09/18 09:48:29;;;;;;;2.53;2.33;;;12.70;99.90;;;;;;5049836;28;20439;-50
2022/09/18 09:51:06;;;;;;;2.53;2.27;;;12.60;99.90;;;;;;5051197;28;20439;-51
2022/09/18 09:53:32;;;;;;;3.00;1.90;;;12.50;99.90;;;;;;5045233;28;21307;-51
2022/09/18 09:56:32;;;;;;;2.00;1.63;;;12.40;99.90;;;;;;5049333;28;20815;-54
2022/09/18 09:59:07;;;;;;;2.17;1.97;;;12.40;99.90;;;;;;5047286;28;20460;-50
2022/09/18 10:01:44;;;;;;;3.43;2.00;;;12.40;99.90;;;;;;5050460;28;20949;-51
2022/09/18 10:04:21;;;;;;;3.80;1.80;;;12.30;99.90;;;;;;5047706;28;20562;-50
2022/09/18 10:07:00;;;;;;;2.00;1.77;;;12.30;99.90;;;;;;5045820;28;20521;-49
2022/09/18 10:09:51;;;;;;;1.63;1.53;;;12.40;99.90;;;;;;5052948;28;20452;-48
2022/09/18 10:12:41;;;;;;;1.43;1.30;;;12.40;99.90;;;;;;5055539;28;20439;-51
2022/09/18 10:15:38;;;;;;;1.93;1.30;;;12.30;99.90;;;;;;5044764;28;20542;-52
2022/09/18 10:18:09;;;;;;;3.13;1.50;;;12.40;99.90;;;;;;5049405;28;20438;-49
2022/09/18 10:20:36;;;;;;;1.70;1.40;;;12.40;99.90;;;;;;5052317;28;20451;-49
2022/09/18 10:23:11;;;;;;;1.60;1.47;;;12.30;99.90;;;;;;5048120;28;20451;-51
2022/09/18 10:25:48;;;;;;;1.53;1.00;;;12.30;99.90;;;;;;5047065;28;21130;-47
2022/09/18 10:28:14;;;;;;;1.93;1.10;;;12.30;99.90;;;;;;5048518;28;20907;-47
2022/09/18 10:30:52;;;;;;;2.43;1.23;;;12.30;99.90;;;;;;5048416;28;20736;-51
2022/09/18 10:33:30;;;;;;;3.53;1.07;;;12.30;99.90;;;;;;5048230;28;20410;-50
2022/09/18 10:36:21;;;;;;;1.20;0.83;;;12.30;99.90;;;;;;5046744;28;20412;-52
2022/09/18 10:38:47;;;;;;;2.30;1.50;;;12.30;99.90;;;;;;5055887;28;20782;-52
2022/09/18 10:41:27;;;;;;;1.87;0.90;;;12.30;99.90;;;;;;5058497;28;20419;-51
2022/09/18 10:44:17;;;;;;;2.20;1.00;;;12.30;99.90;;;;;;5072514;28;20828;-53
2022/09/18 10:47:02;;;;;;;2.43;1.40;;;12.30;99.90;;;;;;5073353;28;20951;-48
2022/09/18 10:49:31;;;;;;;2.10;1.40;;;12.40;99.90;;;;;;5073145;28;20414;-53
2022/09/18 10:52:33;;;;;;;2.33;1.37;;;12.40;99.90;;;;;;5069436;28;20768;-51
2022/09/18 10:55:05;;;;;;;2.70;1.47;;;12.40;99.90;;;;;;5067879;28;20423;-50
2022/09/18 10:57:46;;;;;;;1.33;1.20;;;12.50;99.90;;;;;;5045562;28;20519;-49
2022/09/18 11:00:12;;;;;;;1.80;1.33;;;12.50;99.90;;;;;;5052833;28;20416;-53
2022/09/18 11:02:48;;;;;;;4.07;1.10;;;12.60;99.90;;;;;;5052261;28;20923;-50
2022/09/18 11:05:31;;;;;;;2.87;1.07;;;12.60;99.90;;;;;;5052637;28;20963;-51
2022/09/18 11:08:00;;;;;;;1.40;1.20;;;12.60;99.90;;;;;;5052800;28;20515;-54
2022/09/18 11:10:31;;;;;;;2.87;1.43;;;12.60;99.90;;;;;;5052874;28;20786;-50
2022/09/18 11:13:03;;;;;;;2.97;1.60;;;12.60;99.90;;;;;;5052054;28;20420;-52
2022/09/18 11:15:32;;;;;;;2.40;1.30;;;12.60;99.90;;;;;;5052598;28;20505;-50
2022/09/18 11:18:01;;;;;;;1.40;1.10;;;12.60;99.90;;;;;;5052082;28;20431;-52
2022/09/18 11:20:41;;;;;;;1.70;1.40;;;12.70;99.90;;;;;;5053232;28;20416;-49
2022/09/18 11:23:28;;;;;;;3.57;1.40;;;12.70;99.90;;;;;;5052061;28;20826;-52
2022/09/18 11:26:18;;;;;;;2.17;1.10;;;12.70;99.90;;;;;;5049313;28;20542;-50
2022/09/18 11:29:05;;;;;;;1.90;1.10;;;12.80;99.90;;;;;;5048251;28;20435;-54
2022/09/18 11:31:40;;;;;;;3.30;1.20;;;12.80;99.90;;;;;;5052405;28;20412;-52
2022/09/18 11:34:18;;;;;;;1.70;1.13;;;12.90;99.90;;;;;;5051625;28;20416;-51
2022/09/18 11:36:48;;;;;;;1.73;1.10;;;12.90;99.90;;;;;;5052324;28;20424;-51
2022/09/18 11:39:27;;;;;;;2.87;1.57;;;13.00;99.90;;;;;;5052246;28;20420;-50
2022/09/18 11:41:53;;;;;;;1.67;1.23;;;12.90;99.90;;;;;;5052259;28;20911;-49
2022/09/18 11:44:33;;;;;;;3.47;0.90;;;12.90;99.90;;;;;;5051543;28;20440;-50
2022/09/18 11:47:20;;;;;;;1.20;1.10;;;12.90;99.90;;;;;;5051641;28;20456;-52
2022/09/18 11:50:08;;;;;;;2.47;1.27;;;12.80;99.90;;;;;;5051911;28;20431;-51
2022/09/18 11:53:02;;;;;;;1.90;1.60;;;12.80;99.90;;;;;;5051643;28;20435;-53
2022/09/18 11:55:35;;;;;;;1.43;1.10;;;12.90;99.90;;;;;;5050869;28;20775;-50
2022/09/18 11:58:22;;;;;;;3.50;1.30;;;12.90;99.90;;;;;;5051907;28;21045;-50
2022/09/18 12:01:04;;;;;;;2.20;1.63;;;12.90;99.90;;;;;;5052084;28;20927;-52
2022/09/18 12:03:36;;;;;;;4.23;1.80;;;12.90;99.90;;;;;;5051186;28;20470;-48
2022/09/18 12:06:30;;;;;;;4.70;1.43;;;12.90;99.90;;;;;;5051689;28;20475;-49
2022/09/18 12:09:29;;;;;;;6.87;2.37;;;12.90;99.90;;;;;;5044938;28;20487;-52
2022/09/18 12:12:18;;;;;;;4.33;2.80;;;12.90;99.90;;;;;;5055173;28;20450;-53
2022/09/18 12:14:58;;;;;;;3.57;2.30;;;12.90;99.90;;;;;;5051136;28;20485;-51
2022/09/18 12:17:56;;;;;;;7.40;3.20;;;13.00;99.90;;;;;;5051644;28;20791;-47
2022/09/18 12:20:32;;;;;;;4.50;3.10;;;13.00;99.90;;;;;;5062531;28;20922;-48
2022/09/18 12:23:00;;;;;;;5.27;3.00;;;13.00;99.90;;;;;;5050786;28;20416;-48
2022/09/18 12:25:40;;;;;;;3.70;3.07;;;13.00;99.90;;;;;;5050041;28;20966;-50
2022/09/18 12:28:15;;;;;;;5.40;2.90;;;13.10;99.90;;;;;;5051213;28;20925;-51
2022/09/18 12:31:13;;;;;;;5.63;3.10;;;13.10;99.90;;;;;;5051626;28;20412;-48
2022/09/18 12:33:58;;;;;;;3.83;2.90;;;13.10;99.90;;;;;;5050480;28;20420;-47
2022/09/18 12:36:42;;;;;;;6.87;3.30;;;13.20;99.90;;;;;;5051247;28;20450;-50
2022/09/18 12:39:14;;;;;;;5.77;2.97;;;13.30;99.90;;;;;;5051049;28;20423;-50
2022/09/18 12:41:43;;;;;;;4.40;3.37;;;13.30;99.90;;;;;;5051346;28;20432;-54
2022/09/18 12:44:42;;;;;;;3.40;2.20;;;13.30;99.90;;;;;;5050348;28;20427;-49
2022/09/18 12:47:41;;;;;;;4.33;2.67;;;13.40;99.90;;;;;;5050755;28;20464;-51
2022/09/18 12:50:06;;;;;;;3.33;2.60;;;13.40;99.90;;;;;;5050874;28;20828;-52
2022/09/18 12:52:50;;;;;;;2.30;2.00;;;13.40;99.90;;;;;;5050638;28;20511;-50
2022/09/18 12:55:33;;;;;;;3.30;2.20;;;13.40;99.90;;;;;;5048950;28;20189;-51
2022/09/18 12:58:27;;;;;;;3.00;2.00;;;13.40;99.90;;;;;;5050639;28;20420;-48
2022/09/18 13:00:53;;;;;;;4.63;2.40;;;13.40;99.90;;;;;;5050604;28;20412;-49
2022/09/18 13:03:28;;;;;;;2.03;1.83;;;13.40;99.90;;;;;;5048707;28;20431;-49
2022/09/18 13:06:32;;;;;;;3.57;2.47;;;13.30;99.90;;;;;;5047192;28;20467;-49
2022/09/18 13:09:20;;;;;;;3.73;2.00;;;13.30;99.90;;;;;;5056824;28;20415;-51
2022/09/18 13:12:14;;;;;;;3.70;2.40;;;13.30;99.90;;;;;;5070557;28;20419;-51
2022/09/18 13:14:46;;;;;;;3.20;2.30;;;13.20;99.90;;;;;;5051612;28;20404;-50